Terminal Aerodrome Forecast
Issued by NWS

Home | Current Version | Previous Version | Text Only | Print | Product List | Glossary Off
Versions: 1 2 3 4 5 6 7 8 9 10 11 12 13 14 15 16 17 18 19

800
FTUS43 KMPX 200843 AAA
TAFRNH
TAF AMD
KRNH 200843Z 2009/2106 24004KT 4SM BR BKN250
      TEMPO 2009/2012 1/2SM FG
     FM201400 23002KT P6SM OVC100
     FM210300 00000KT P6SM BKN030=

USA.gov is the U.S. government's official web portal to all federal, state and local government web resources and services.